Hauptseite
METAR-TAF:

METAR-TAF

Flughäfen :

Lydd, England

Breite: 50-57N, Länge: 000-56E, Höhe: 3 m

Beobachtung

Neuester Wetterbericht von vor 42 Minuten, um 05:50 UTC
Wind 13 kt aus Ost/Nordost
Temperatur 16°C
Luftfeuchtigkeit 77%
Luftdruck 1022 hPa
Sichtweite 10 km oder mehr

METAR: EGMD 310550Z AUTO 07013KT 9999 NCD 16/12 Q1022

Zeit: 07:32 (06:32 UTC)

Prognose

Neuester Wetterbericht von vor 4 Stunden und 33 Minuten, um 01:59 UTC
Gültige Prognose vom 31 um 03 UTC bis 31 um 12 UTC
Wind 13 kt aus Ost/Nordost
Sichtweite 10 km oder mehr
keine Wolken unter 1500 m und keine Kumulonimbus oder Gewitterwolken
Wahrscheinlichkeit 30% :
Zeitweise
vom 31 um 11 UTC bis 31 um 12 UTC
Wind 16 kt aus Ost/Nordost, Böen bis zu 26 kt

TAF: EGMD 310159Z 3103/3112 06013KT CAVOK PROB30 TEMPO 3111/3112 07016G26KT

Wetterbeobachtungen und Prognosen von mehr als 4000 Flughäfen (METAR und TAF Bericht).

Die verfügbaren Stationen werden durch gelbe und rote Markierungen auf der Karte dargestellt.

Führen Sie die Maus auf sie, um den Namen der Station zu sehen.

Darauf klicken, um die Beobachtung von Wetterbeobachtungen und Prognosen zu sehen.

Um die Karte zu ändern : klicken Sie auf den grünen Tasten mit einem schwarzen Kreuz Zum Vergrößern, auf den grünen Button mit einem Gedankenstrich zu verkleinern, oder auf die grünen Pfeile für benachbarte Karten.


METAR-TAF: